createdAt,value
2019-06-01T00:01:42.333Z,96.30
2019-06-01T00:04:10.994Z,96.40
2019-06-01T00:06:40.681Z,96.50
2019-06-01T00:09:09.308Z,96.70
2019-06-01T00:11:39.090Z,96.80
2019-06-01T00:14:08.036Z,97.00
2019-06-01T00:16:36.565Z,97.10
2019-06-01T00:19:05.053Z,97.30
2019-06-01T00:21:33.484Z,97.40
2019-06-01T00:24:21.257Z,97.50
2019-06-01T00:26:49.939Z,97.50
2019-06-01T00:29:18.505Z,97.70
2019-06-01T00:31:47.925Z,97.70
2019-06-01T00:34:16.457Z,97.90
2019-06-01T00:36:45.643Z,98.00
2019-06-01T00:39:14.293Z,98.20
2019-06-01T00:41:43.877Z,98.10
2019-06-01T00:44:12.429Z,98.10
2019-06-01T00:46:40.846Z,98.10
2019-06-01T00:49:28.625Z,98.00
2019-06-01T00:51:57.049Z,98.10
2019-06-01T00:54:25.470Z,98.10
2019-06-01T00:56:54.018Z,98.20
2019-06-01T00:59:22.479Z,98.30
2019-06-01T01:01:52.131Z,98.40
2019-06-01T01:04:20.836Z,98.50
2019-06-01T01:06:50.783Z,98.50
2019-06-01T01:09:19.398Z,98.50
2019-06-01T01:11:49.058Z,98.60
2019-06-01T01:14:17.832Z,98.70
2019-06-01T01:16:47.415Z,98.80
2019-06-01T01:19:35.330Z,98.80
2019-06-01T01:22:05.136Z,98.90
2019-06-01T01:24:33.557Z,99.00
2019-06-01T01:27:02.005Z,99.10
2019-06-01T01:29:30.528Z,99.20
2019-06-01T01:31:58.953Z,99.30
2019-06-01T01:34:27.388Z,99.30
2019-06-01T01:36:56.085Z,99.40
2019-06-01T01:39:24.722Z,99.50
2019-06-01T01:41:54.166Z,99.50
2019-06-01T01:44:22.767Z,99.60
2019-06-01T01:46:52.668Z,99.70
2019-06-01T01:49:21.309Z,99.80
2019-06-01T01:51:50.406Z,99.90
2019-06-01T01:54:19.153Z,99.90
2019-06-01T01:56:47.591Z,99.90
2019-06-01T01:59:16.017Z,99.90
2019-06-01T02:01:44.450Z,99.90
2019-06-01T02:04:12.885Z,99.90
2019-06-01T02:06:41.317Z,99.90
2019-06-01T02:09:09.746Z,99.90
2019-06-01T02:11:38.181Z,99.90
2019-06-01T02:14:25.966Z,99.90
2019-06-01T02:16:54.480Z,99.90
2019-06-01T02:19:22.889Z,99.90
2019-06-01T02:22:10.665Z,99.90
2019-06-01T02:24:39.115Z,99.90
2019-06-01T02:27:07.554Z,99.90
2019-06-01T02:29:35.982Z,99.90
2019-06-01T02:32:06.506Z,99.90
2019-06-01T02:34:34.824Z,99.90
2019-06-01T02:37:04.539Z,99.90
2019-06-01T02:39:33.166Z,99.90
2019-06-01T02:42:03.246Z,99.90
2019-06-01T02:44:31.738Z,99.90
2019-06-01T02:47:01.527Z,99.90
2019-06-01T02:49:30.248Z,99.90
2019-06-01T02:51:59.268Z,99.90
2019-06-01T02:54:27.962Z,99.90
2019-06-01T02:57:09.371Z,99.90
2019-06-01T02:59:37.828Z,99.90
2019-06-01T03:02:11.909Z,99.90
2019-06-01T03:04:36.826Z,99.90
2019-06-01T03:07:07.129Z,99.90
2019-06-01T03:09:37.054Z,99.90
2019-06-01T03:12:06.290Z,99.90
2019-06-01T03:14:36.852Z,99.90
2019-06-01T03:17:05.872Z,99.90
2019-06-01T03:19:37.858Z,99.90
2019-06-01T03:22:09.008Z,99.90
2019-06-01T03:24:37.446Z,99.90
2019-06-01T03:27:06.328Z,99.90
2019-06-01T03:29:38.018Z,99.90
2019-06-01T03:32:24.172Z,99.90
2019-06-01T03:34:36.674Z,99.90
2019-06-01T03:37:05.118Z,99.90
2019-06-01T03:39:34.374Z,99.90
2019-06-01T03:42:03.321Z,99.90
2019-06-01T03:44:32.047Z,99.90
2019-06-01T03:47:01.532Z,99.90
2019-06-01T03:49:30.200Z,99.90
2019-06-01T03:51:58.686Z,99.90
2019-06-01T03:54:27.122Z,99.90
2019-06-01T03:56:55.550Z,99.90
2019-06-01T03:59:23.974Z,99.90
2019-06-01T04:01:52.410Z,99.90
2019-06-01T04:04:21.170Z,99.90
2019-06-01T04:06:49.622Z,99.90
2019-06-01T04:09:18.039Z,99.90
2019-06-01T04:11:46.472Z,99.90
2019-06-01T04:14:14.917Z,99.90
2019-06-01T04:16:43.350Z,99.90
2019-06-01T04:19:12.214Z,99.90
2019-06-01T04:21:40.904Z,99.90
2019-06-01T04:24:10.204Z,99.90
2019-06-01T04:26:38.892Z,99.90
2019-06-01T04:29:08.303Z,99.90
2019-06-01T04:31:36.763Z,99.90
2019-06-01T04:34:05.254Z,99.90
2019-06-01T04:36:33.669Z,99.90
2019-06-01T04:39:03.289Z,99.90
2019-06-01T04:41:32.013Z,99.90
2019-06-01T04:44:00.446Z,99.90
2019-06-01T04:46:28.877Z,99.90
2019-06-01T04:48:57.309Z,99.90
2019-06-01T04:51:25.738Z,99.90
2019-06-01T04:53:54.182Z,99.90
2019-06-01T04:56:22.614Z,99.90
2019-06-01T04:58:51.030Z,99.90
2019-06-01T05:01:19.471Z,99.90
2019-06-01T05:03:47.924Z,99.90
2019-06-01T05:06:16.362Z,99.90
2019-06-01T05:08:44.773Z,99.90
2019-06-01T05:11:13.536Z,99.90
2019-06-01T05:13:42.230Z,99.90
2019-06-01T05:16:12.924Z,99.90
2019-06-01T05:18:40.810Z,99.90
2019-06-01T05:21:10.359Z,99.90
2019-06-01T05:23:38.950Z,99.90
2019-06-01T05:26:09.014Z,99.90
2019-06-01T05:28:37.444Z,99.90
2019-06-01T05:31:05.898Z,99.90
2019-06-01T05:33:37.568Z,99.90
2019-06-01T05:36:04.830Z,99.90
2019-06-01T05:38:33.325Z,99.90
2019-06-01T05:41:01.769Z,99.90
2019-06-01T05:43:30.199Z,99.90
2019-06-01T05:45:58.702Z,99.90
2019-06-01T05:48:30.539Z,99.90
2019-06-01T05:50:57.330Z,99.90
2019-06-01T05:53:25.736Z,99.90
2019-06-01T05:55:54.164Z,99.90
2019-06-01T05:58:22.603Z,99.90
2019-06-01T06:00:51.027Z,99.90
2019-06-01T06:03:22.269Z,99.90
2019-06-01T06:05:49.635Z,99.90
2019-06-01T06:08:18.404Z,99.90
2019-06-01T06:10:46.833Z,99.90
2019-06-01T06:13:15.432Z,99.90
2019-06-01T06:15:44.055Z,99.90
2019-06-01T06:18:13.620Z,99.90
2019-06-01T06:20:42.299Z,99.90
2019-06-01T06:23:10.711Z,99.90
2019-06-01T06:25:58.479Z,99.90
2019-06-01T06:28:26.935Z,99.90
2019-06-01T06:30:55.357Z,99.90
2019-06-01T06:33:23.814Z,99.90
2019-06-01T06:35:52.312Z,99.90
2019-06-01T06:38:21.943Z,99.90
2019-06-01T06:40:50.629Z,99.90
2019-06-01T06:43:27.527Z,99.90
2019-06-01T06:45:49.214Z,99.90
2019-06-01T06:48:19.230Z,99.90
2019-06-01T06:50:47.939Z,99.90
2019-06-01T06:53:25.306Z,99.90
2019-06-01T06:55:46.533Z,99.90
2019-06-01T06:58:15.948Z,99.90
2019-06-01T07:00:44.448Z,99.90
2019-06-01T07:03:12.896Z,99.90
2019-06-01T07:05:41.304Z,99.90
2019-06-01T07:08:09.741Z,99.90
2019-06-01T07:10:38.187Z,99.90
2019-06-01T07:13:06.760Z,99.90
2019-06-01T07:15:35.324Z,99.90
2019-06-01T07:18:03.755Z,99.90
2019-06-01T07:20:32.187Z,99.90
2019-06-01T07:23:00.614Z,99.90
2019-06-01T07:25:29.038Z,99.90
2019-06-01T07:27:57.474Z,99.90
2019-06-01T07:30:26.340Z,99.90
2019-06-01T07:32:55.008Z,99.90
2019-06-01T07:35:25.008Z,99.90
2019-06-01T07:37:53.493Z,99.90
2019-06-01T07:40:22.974Z,99.90
2019-06-01T07:42:51.525Z,99.90
2019-06-01T07:45:20.811Z,99.90
2019-06-01T07:47:49.381Z,99.90
2019-06-01T07:50:17.801Z,99.90
2019-06-01T07:52:46.249Z,99.90
2019-06-01T07:55:14.825Z,99.90
2019-06-01T07:57:44.226Z,99.90
2019-06-01T08:00:13.929Z,99.90
2019-06-01T08:02:42.371Z,99.90
2019-06-01T08:05:10.946Z,99.90
2019-06-01T08:07:39.377Z,99.90
2019-06-01T08:10:08.261Z,99.90
2019-06-01T08:12:36.681Z,99.90
2019-06-01T08:15:08.545Z,99.90
2019-06-01T08:17:36.963Z,99.90
2019-06-01T08:20:25.935Z,99.90
2019-06-01T08:22:54.561Z,99.90
2019-06-01T08:25:24.204Z,99.90
2019-06-01T08:27:53.141Z,99.90
2019-06-01T08:30:22.587Z,99.90
2019-06-01T08:32:51.054Z,99.90
2019-06-01T08:35:19.490Z,99.90
2019-06-01T08:37:47.926Z,99.90
2019-06-01T08:40:16.414Z,99.90
2019-06-01T08:42:44.850Z,99.90
2019-06-01T08:45:13.938Z,99.90
2019-06-01T08:47:42.384Z,99.90
2019-06-01T08:50:11.908Z,99.90
2019-06-01T08:52:40.338Z,99.90
2019-06-01T08:55:09.098Z,99.90
2019-06-01T08:57:37.607Z,99.90
2019-06-01T09:00:08.550Z,99.90
2019-06-01T09:02:37.063Z,99.90
2019-06-01T09:05:21.299Z,99.90
2019-06-01T09:07:37.683Z,99.90
2019-06-01T09:10:10.780Z,99.90
2019-06-01T09:12:39.218Z,99.90
2019-06-01T09:15:09.382Z,99.90
2019-06-01T09:17:37.821Z,99.90
2019-06-01T09:20:07.031Z,99.90
2019-06-01T09:22:35.821Z,99.90
2019-06-01T09:25:05.814Z,99.90
2019-06-01T09:27:34.240Z,99.90
2019-06-01T09:30:02.755Z,99.70
2019-06-01T09:32:32.187Z,99.90
2019-06-01T09:35:00.882Z,99.90
2019-06-01T09:37:30.446Z,99.60
2019-06-01T09:39:59.151Z,99.10
2019-06-01T09:42:28.758Z,99.00
2019-06-01T09:44:57.492Z,99.60
2019-06-01T09:47:26.985Z,99.20
2019-06-01T09:49:55.623Z,99.40
2019-06-01T09:52:24.088Z,99.10
2019-06-01T09:54:52.555Z,99.30
2019-06-01T09:57:20.992Z,98.80
2019-06-01T09:59:49.444Z,99.20
2019-06-01T10:02:17.889Z,98.40
2019-06-01T10:04:46.716Z,98.40
2019-06-01T10:07:15.162Z,97.50
2019-06-01T10:09:43.581Z,97.70
2019-06-01T10:12:12.023Z,97.50
2019-06-01T10:14:40.454Z,97.40
2019-06-01T10:17:08.886Z,97.10
2019-06-01T10:19:37.374Z,96.20
2019-06-01T10:22:05.881Z,96.30
2019-06-01T10:24:35.113Z,96.60
2019-06-01T10:27:04.307Z,96.20
2019-06-01T10:29:32.738Z,96.60
2019-06-01T10:32:01.151Z,96.50
2019-06-01T10:34:29.577Z,95.90
2019-06-01T10:36:58.006Z,95.50
2019-06-01T10:39:26.441Z,94.90
2019-06-01T10:41:54.858Z,94.50
2019-06-01T10:44:23.290Z,94.60
2019-06-01T10:46:51.718Z,94.20
2019-06-01T10:49:20.142Z,94.40
2019-06-01T10:51:48.575Z,94.30
2019-06-01T10:54:17.003Z,93.50
2019-06-01T10:56:45.414Z,93.60
2019-06-01T10:59:34.183Z,94.20
2019-06-01T11:02:02.695Z,94.40
2019-06-01T11:04:31.107Z,93.00
2019-06-01T11:06:59.530Z,92.80
2019-06-01T11:09:27.967Z,93.00
2019-06-01T11:11:56.404Z,92.80
2019-06-01T11:14:24.823Z,93.00
2019-06-01T11:16:56.496Z,92.70
2019-06-01T11:19:23.404Z,92.50
2019-06-01T11:21:51.907Z,92.20
2019-06-01T11:24:20.437Z,92.50
2019-06-01T11:26:49.001Z,92.20
2019-06-01T11:29:17.432Z,92.10
2019-06-01T11:31:45.853Z,92.00
2019-06-01T11:34:14.380Z,91.60
2019-06-01T11:37:03.685Z,91.50
2019-06-01T11:39:12.942Z,90.80
2019-06-01T11:41:42.550Z,90.70
2019-06-01T11:44:11.266Z,91.10
2019-06-01T11:46:41.051Z,89.80
2019-06-01T11:49:09.700Z,90.20
2019-06-01T11:51:39.388Z,89.70
2019-06-01T11:54:08.029Z,89.30
2019-06-01T11:56:37.248Z,88.40
2019-06-01T11:59:05.924Z,88.90
2019-06-01T12:01:35.548Z,86.80
2019-06-01T12:04:04.481Z,87.10
2019-06-01T12:06:32.930Z,88.30
2019-06-01T12:09:01.362Z,86.60
2019-06-01T12:11:29.767Z,85.60
2019-06-01T12:13:58.231Z,86.40
2019-06-01T12:16:26.631Z,84.40
2019-06-01T12:18:55.059Z,85.10
2019-06-01T12:21:23.466Z,84.60
2019-06-01T12:23:51.899Z,85.20
2019-06-01T12:26:20.310Z,83.60
2019-06-01T12:28:48.771Z,82.50
2019-06-01T12:31:17.187Z,83.40
2019-06-01T12:33:46.401Z,80.60
2019-06-01T12:36:14.910Z,79.90
2019-06-01T12:38:53.051Z,79.50
2019-06-01T12:41:22.806Z,79.10
2019-06-01T12:44:08.814Z,78.50
2019-06-01T12:46:40.081Z,78.60
2019-06-01T12:49:08.674Z,77.30
2019-06-01T12:51:37.096Z,77.40
2019-06-01T12:54:06.740Z,77.00
2019-06-01T12:56:35.162Z,77.20
2019-06-01T12:59:03.895Z,76.60
2019-06-01T13:01:32.394Z,76.60
2019-06-01T13:04:00.855Z,75.60
2019-06-01T13:06:29.291Z,76.50
2019-06-01T13:08:57.715Z,75.60
2019-06-01T13:11:26.143Z,74.60
2019-06-01T13:13:54.569Z,71.90
2019-06-01T13:16:22.999Z,71.90
2019-06-01T13:18:51.736Z,73.20
2019-06-01T13:21:20.388Z,71.70
2019-06-01T13:23:49.660Z,70.70
2019-06-01T13:26:18.329Z,69.60
2019-06-01T13:28:46.772Z,69.30
2019-06-01T13:31:15.183Z,69.60
2019-06-01T13:33:44.455Z,68.90
2019-06-01T13:36:13.186Z,68.20
2019-06-01T13:38:42.496Z,67.00
2019-06-01T13:41:11.080Z,66.30
2019-06-01T13:43:39.488Z,65.20
2019-06-01T13:46:07.990Z,65.50
2019-06-01T13:48:36.407Z,65.50
2019-06-01T13:51:04.943Z,63.50
2019-06-01T13:53:33.387Z,64.20
2019-06-01T13:56:01.801Z,59.80
2019-06-01T13:58:30.232Z,54.20
2019-06-01T14:00:58.649Z,49.50
2019-06-01T14:03:27.064Z,44.10
2019-06-01T14:05:55.508Z,39.00
2019-06-01T14:08:28.992Z,35.90
2019-06-01T14:10:55.454Z,32.80
2019-06-01T14:13:24.072Z,30.70
2019-06-01T14:15:53.623Z,28.40
2019-06-01T14:18:22.312Z,27.10
2019-06-01T14:20:51.735Z,25.40
2019-06-01T14:23:20.407Z,24.80
2019-06-01T14:25:50.086Z,24.40
2019-06-01T14:28:18.669Z,23.90
2019-06-01T14:30:48.323Z,24.10
2019-06-01T14:33:17.072Z,23.80
2019-06-01T14:35:46.560Z,23.60
2019-06-01T14:38:15.321Z,23.00
2019-06-01T14:40:43.752Z,23.40
2019-06-01T14:43:12.176Z,23.90
2019-06-01T14:45:40.613Z,23.90
2019-06-01T14:48:09.037Z,23.40
2019-06-01T14:50:37.461Z,22.60
2019-06-01T14:53:05.888Z,23.10
2019-06-01T14:55:34.317Z,22.70
2019-06-01T14:58:02.751Z,22.30
2019-06-01T15:00:31.181Z,21.80
2019-06-01T15:02:59.622Z,22.30
2019-06-01T15:05:28.039Z,21.70
2019-06-01T15:07:57.160Z,22.50
2019-06-01T15:10:26.157Z,21.90
2019-06-01T15:13:00.328Z,21.90
2019-06-01T15:15:24.703Z,22.60
2019-06-01T15:17:53.393Z,22.80
2019-06-01T15:20:22.022Z,22.30
2019-06-01T15:22:50.476Z,22.10
2019-06-01T15:25:18.951Z,21.70
2019-06-01T15:27:47.367Z,22.00
2019-06-01T15:30:16.275Z,22.10
2019-06-01T15:32:44.690Z,21.80
2019-06-01T15:35:14.159Z,21.20
2019-06-01T15:37:42.576Z,21.40
2019-06-01T15:40:11.760Z,21.80
2019-06-01T15:42:40.170Z,22.10
2019-06-01T15:45:10.051Z,21.80
2019-06-01T15:47:38.485Z,21.80
2019-06-01T15:50:08.168Z,22.50
2019-06-01T15:52:36.610Z,23.60
2019-06-01T15:55:08.844Z,24.60
2019-06-01T15:57:37.344Z,25.80
2019-06-01T16:00:10.924Z,26.60
2019-06-01T16:02:40.389Z,27.10
2019-06-01T16:05:09.451Z,28.00
2019-06-01T16:07:37.939Z,29.10
2019-06-01T16:10:08.374Z,30.00
2019-06-01T16:12:37.231Z,30.60
2019-06-01T16:15:08.176Z,32.00
2019-06-01T16:17:36.597Z,32.70
2019-06-01T16:20:08.806Z,33.60
2019-06-01T16:22:37.333Z,34.00
2019-06-01T16:25:07.761Z,34.60
2019-06-01T16:27:36.179Z,35.00
2019-06-01T16:30:09.704Z,34.80
2019-06-01T16:32:39.521Z,35.50
2019-06-01T16:35:08.429Z,35.80
2019-06-01T16:37:37.333Z,36.60
2019-06-01T16:40:10.355Z,37.20
2019-06-01T16:42:37.943Z,37.30
2019-06-01T16:45:07.696Z,37.50
2019-06-01T16:47:36.224Z,37.50
2019-06-01T16:50:07.141Z,37.90
2019-06-01T16:52:35.674Z,38.00
2019-06-01T16:55:06.965Z,38.40
2019-06-01T16:57:54.864Z,38.30
2019-06-01T17:00:23.369Z,38.70
2019-06-01T17:02:51.805Z,39.10
2019-06-01T17:05:20.221Z,39.50
2019-06-01T17:07:48.677Z,39.60
2019-06-01T17:10:25.655Z,39.70
2019-06-01T17:12:47.527Z,39.90
2019-06-01T17:15:16.378Z,40.20
2019-06-01T17:17:44.810Z,40.30
2019-06-01T17:20:43.461Z,40.00
2019-06-01T17:23:26.304Z,40.10
2019-06-01T17:25:42.084Z,40.40
2019-06-01T17:28:10.566Z,40.60
2019-06-01T17:30:39.190Z,40.40
2019-06-01T17:33:08.560Z,40.70
2019-06-01T17:35:37.420Z,40.90
2019-06-01T17:38:07.266Z,40.80
2019-06-01T17:40:39.675Z,40.70
2019-06-01T17:43:06.970Z,40.90
2019-06-01T17:45:35.699Z,40.70
2019-06-01T17:48:19.387Z,40.40
2019-06-01T17:50:35.359Z,40.20
2019-06-01T17:53:04.661Z,40.30
2019-06-01T17:55:34.795Z,40.40
2019-06-01T17:58:03.580Z,40.50
2019-06-01T18:00:32.091Z,40.60
2019-06-01T18:03:01.576Z,40.80
2019-06-01T18:05:30.367Z,40.40
2019-06-01T18:07:58.803Z,39.70
2019-06-01T18:10:28.562Z,39.50
2019-06-01T18:12:57.066Z,40.00
2019-06-01T18:15:25.565Z,40.40
2019-06-01T18:17:53.983Z,40.60
2019-06-01T18:20:41.815Z,41.20
2019-06-01T18:23:11.450Z,41.10
2019-06-01T18:25:40.430Z,41.30
2019-06-01T18:28:15.056Z,41.60
2019-06-01T18:30:39.139Z,42.00
2019-06-01T18:33:08.931Z,42.90
2019-06-01T18:35:37.523Z,44.30
2019-06-01T18:38:06.020Z,45.00
2019-06-01T18:40:34.719Z,45.60
2019-06-01T18:43:06.231Z,46.40
2019-06-01T18:45:36.699Z,46.70
2019-06-01T18:48:06.149Z,47.30
2019-06-01T18:50:34.732Z,47.70
2019-06-01T18:53:03.912Z,48.50
2019-06-01T18:55:35.276Z,49.40
2019-06-01T18:58:03.942Z,49.10
2019-06-01T19:00:32.648Z,49.70
2019-06-01T19:03:01.085Z,50.00
2019-06-01T19:05:29.511Z,50.80
2019-06-01T19:07:57.935Z,51.40
2019-06-01T19:10:26.387Z,51.70
2019-06-01T19:12:54.803Z,52.40
2019-06-01T19:15:28.561Z,52.20
2019-06-01T19:17:54.142Z,52.30
2019-06-01T19:20:22.555Z,52.50
2019-06-01T19:22:51.502Z,52.50
2019-06-01T19:25:20.172Z,52.60
2019-06-01T19:27:48.615Z,53.00
2019-06-01T19:30:37.849Z,53.10
2019-06-01T19:33:10.885Z,53.30
2019-06-01T19:35:38.056Z,53.50
2019-06-01T19:38:07.050Z,53.60
2019-06-01T19:40:37.700Z,53.70
2019-06-01T19:43:07.350Z,53.90
2019-06-01T19:45:36.111Z,54.10
2019-06-01T19:48:05.855Z,54.10
2019-06-01T19:50:34.441Z,54.30
2019-06-01T19:53:02.896Z,54.70
2019-06-01T19:55:31.368Z,55.10
2019-06-01T19:58:00.573Z,55.90
2019-06-01T20:00:29.008Z,57.00
2019-06-01T20:02:57.424Z,57.80
2019-06-01T20:05:26.004Z,58.20
2019-06-01T20:07:54.430Z,58.80
2019-06-01T20:10:22.848Z,59.30
2019-06-01T20:12:51.259Z,60.40
2019-06-01T20:15:19.731Z,60.80
2019-06-01T20:17:48.197Z,61.40
2019-06-01T20:20:19.590Z,61.90
2019-06-01T20:22:48.284Z,62.60
2019-06-01T20:25:17.908Z,63.40
2019-06-01T20:27:46.328Z,64.10
2019-06-01T20:30:15.902Z,64.40
2019-06-01T20:32:44.400Z,64.40
2019-06-01T20:35:13.909Z,65.00
2019-06-01T20:37:42.488Z,66.80
2019-06-01T20:40:12.176Z,66.30
2019-06-01T20:42:40.864Z,67.40
2019-06-01T20:45:10.548Z,68.00
2019-06-01T20:47:38.982Z,68.60
2019-06-01T20:50:09.149Z,69.40
2019-06-01T20:52:37.735Z,70.00
2019-06-01T20:55:07.777Z,71.00
2019-06-01T20:57:36.198Z,71.80
2019-06-01T21:00:11.218Z,72.60
2019-06-01T21:02:39.664Z,73.50
2019-06-01T21:05:08.444Z,73.90
2019-06-01T21:07:36.863Z,74.40
2019-06-01T21:10:07.808Z,75.20
2019-06-01T21:12:44.773Z,75.60
2019-06-01T21:15:07.669Z,76.20
2019-06-01T21:17:36.189Z,76.60
2019-06-01T21:20:07.755Z,77.10
2019-06-01T21:22:36.221Z,77.50
2019-06-01T21:25:07.113Z,78.20
2019-06-01T21:27:35.575Z,78.90
2019-06-01T21:30:09.270Z,79.00
2019-06-01T21:32:37.701Z,79.80
2019-06-01T21:35:06.667Z,80.10
2019-06-01T21:37:35.105Z,81.20
2019-06-01T21:43:06.774Z,82.40
2019-06-01T21:45:23.643Z,82.80
2019-06-01T21:47:52.166Z,83.40
2019-06-01T21:50:21.902Z,84.00
2019-06-01T21:53:09.933Z,84.50
2019-06-01T21:55:38.353Z,85.20
2019-06-01T21:58:06.786Z,85.90
2019-06-01T22:00:37.925Z,86.40
2019-06-01T22:03:08.310Z,87.00
2019-06-01T22:05:36.970Z,87.10
2019-06-01T22:08:05.634Z,87.00
2019-06-01T22:10:34.081Z,87.60
2019-06-01T22:13:17.582Z,88.40
2019-06-01T22:15:32.653Z,88.50
2019-06-01T22:18:01.088Z,88.80
2019-06-01T22:20:29.509Z,89.20
2019-06-01T22:22:57.941Z,89.60
2019-06-01T22:25:26.661Z,90.00
2019-06-01T22:27:55.098Z,90.20
2019-06-01T22:30:24.819Z,90.30
2019-06-01T22:32:53.752Z,90.50
2019-06-01T22:35:22.779Z,90.70
2019-06-01T22:37:51.401Z,90.70
2019-06-01T22:40:20.871Z,90.70
2019-06-01T22:42:49.553Z,90.80
2019-06-01T22:45:18.026Z,90.70
2019-06-01T22:47:46.450Z,90.60
2019-06-01T22:50:14.936Z,90.70
2019-06-01T22:52:43.378Z,90.70
2019-06-01T22:55:11.859Z,90.80
2019-06-01T22:57:43.155Z,90.90
2019-06-01T23:00:11.090Z,91.10
2019-06-01T23:02:39.507Z,91.10
2019-06-01T23:05:08.262Z,91.10
2019-06-01T23:07:49.266Z,91.40
2019-06-01T23:10:17.703Z,91.60
2019-06-01T23:12:46.144Z,91.60
2019-06-01T23:15:14.592Z,91.80
2019-06-01T23:17:43.008Z,91.90
2019-06-01T23:20:11.768Z,92.20
2019-06-01T23:22:40.208Z,92.40
2019-06-01T23:25:08.980Z,92.50
2019-06-01T23:27:37.414Z,92.60
2019-06-01T23:30:08.780Z,92.90
2019-06-01T23:32:37.295Z,93.10
2019-06-01T23:35:06.572Z,93.20
2019-06-01T23:37:34.997Z,93.30
2019-06-01T23:40:04.481Z,93.50
2019-06-01T23:42:33.019Z,93.50
2019-06-01T23:45:01.513Z,93.60
2019-06-01T23:47:43.257Z,93.60
2019-06-01T23:50:11.773Z,93.40
2019-06-01T23:52:40.217Z,93.40
2019-06-01T23:55:08.710Z,93.30
2019-06-01T23:57:37.140Z,93.40
